createdAt,value
2023-02-24T00:00:36.743Z,24.60
2023-02-24T00:05:43.930Z,24.60
2023-02-24T00:10:51.143Z,24.60
2023-02-24T00:15:58.338Z,24.70
2023-02-24T00:21:05.499Z,24.70
2023-02-24T00:26:12.744Z,24.70
2023-02-24T00:31:20.958Z,24.70
2023-02-24T00:36:27.642Z,24.70
2023-02-24T00:41:34.865Z,24.60
2023-02-24T00:46:42.125Z,24.50
2023-02-24T00:51:49.303Z,24.50
2023-02-24T00:56:56.517Z,24.40
2023-02-24T01:02:03.864Z,24.30
2023-02-24T01:07:11.386Z,24.30
2023-02-24T01:12:18.353Z,24.20
2023-02-24T01:17:25.359Z,24.10
2023-02-24T01:22:32.527Z,24.10
2023-02-24T01:27:39.794Z,24.00
2023-02-24T01:32:47.459Z,23.90
2023-02-24T01:37:54.194Z,23.80
2023-02-24T01:43:01.383Z,23.70
2023-02-24T01:48:08.527Z,23.60
2023-02-24T01:53:15.693Z,23.60
2023-02-24T01:58:22.960Z,23.50
2023-02-24T02:03:30.187Z,23.40
2023-02-24T02:08:37.375Z,23.30
2023-02-24T02:13:44.667Z,23.30
2023-02-24T02:18:51.945Z,23.20
2023-02-24T02:23:59.132Z,23.10
2023-02-24T02:29:06.327Z,23.10
2023-02-24T02:34:13.469Z,23.00
2023-02-24T02:39:20.656Z,22.90
2023-02-24T02:44:27.885Z,22.90
2023-02-24T02:49:35.062Z,22.80
2023-02-24T02:54:42.264Z,22.80
2023-02-24T02:59:49.518Z,22.70
2023-02-24T03:04:56.821Z,22.60
2023-02-24T03:10:03.871Z,22.60
2023-02-24T03:15:11.100Z,22.50
2023-02-24T03:20:18.232Z,22.40
2023-02-24T03:25:25.383Z,22.40
2023-02-24T03:30:32.668Z,22.30
2023-02-24T03:35:39.796Z,22.30
2023-02-24T03:40:47.002Z,22.20
2023-02-24T03:45:54.275Z,22.20
2023-02-24T03:51:01.447Z,22.10
2023-02-24T03:56:08.642Z,22.10
2023-02-24T04:01:15.952Z,22.00
2023-02-24T04:06:23.017Z,21.90
2023-02-24T04:11:30.204Z,21.90
2023-02-24T04:16:37.763Z,21.90
2023-02-24T04:21:44.972Z,21.80
2023-02-24T04:26:52.165Z,21.80
2023-02-24T04:31:59.684Z,21.70
2023-02-24T04:37:06.708Z,21.70
2023-02-24T04:42:13.903Z,21.60
2023-02-24T04:47:21.108Z,21.60
2023-02-24T04:52:28.278Z,21.50
2023-02-24T04:57:35.440Z,21.50
2023-02-24T05:02:42.656Z,21.50
2023-02-24T05:07:49.800Z,21.40
2023-02-24T05:12:56.990Z,21.40
2023-02-24T05:18:04.220Z,21.30
2023-02-24T05:23:11.393Z,21.30
2023-02-24T05:28:18.659Z,21.20
2023-02-24T05:33:25.843Z,21.20
2023-02-24T05:38:33.012Z,21.10
2023-02-24T05:43:40.242Z,21.10
2023-02-24T05:48:47.465Z,21.10
2023-02-24T05:53:54.675Z,21.10
2023-02-24T05:59:02.002Z,21.00
2023-02-24T06:04:09.155Z,21.00
2023-02-24T06:09:16.344Z,20.90
2023-02-24T06:14:23.596Z,20.90
2023-02-24T06:19:30.822Z,20.90
2023-02-24T06:24:37.973Z,20.80
2023-02-24T06:29:45.682Z,20.80
2023-02-24T06:34:52.899Z,20.80
2023-02-24T06:40:00.150Z,20.70
2023-02-24T06:45:08.004Z,20.70
2023-02-24T06:50:14.536Z,20.70
2023-02-24T06:55:21.719Z,20.60
2023-02-24T07:00:28.912Z,20.60
2023-02-24T07:05:36.089Z,20.50
2023-02-24T07:10:43.317Z,20.50
2023-02-24T07:15:50.555Z,20.50
2023-02-24T07:20:57.810Z,20.40
2023-02-24T07:26:05.003Z,20.40
2023-02-24T07:31:12.322Z,20.40
2023-02-24T07:36:19.468Z,20.40
2023-02-24T07:41:26.642Z,20.30
2023-02-24T07:46:34.010Z,20.30
2023-02-24T07:51:41.184Z,20.30
2023-02-24T07:56:48.405Z,20.20
2023-02-24T08:01:55.950Z,20.20
2023-02-24T08:07:03.433Z,20.20
2023-02-24T08:12:09.964Z,20.10
2023-02-24T08:17:17.137Z,20.10
2023-02-24T08:22:24.345Z,20.10
2023-02-24T08:27:31.535Z,20.20
2023-02-24T08:32:38.880Z,20.20
2023-02-24T08:37:45.942Z,20.30
2023-02-24T08:42:53.122Z,20.40
2023-02-24T08:48:00.324Z,20.50
2023-02-24T08:53:07.591Z,20.60
2023-02-24T08:58:14.804Z,20.70
2023-02-24T09:03:22.059Z,20.80
2023-02-24T09:08:29.280Z,20.90
2023-02-24T09:13:36.401Z,21.00
2023-02-24T09:18:43.699Z,21.10
2023-02-24T09:23:50.998Z,21.20
2023-02-24T09:28:58.215Z,21.30
2023-02-24T09:34:05.338Z,21.40
2023-02-24T09:39:12.555Z,21.50
2023-02-24T09:44:19.832Z,21.50
2023-02-24T09:49:27.003Z,21.60
2023-02-24T09:54:34.219Z,21.70
2023-02-24T09:59:41.378Z,21.70
2023-02-24T10:04:48.608Z,21.80
2023-02-24T10:09:55.864Z,21.90
2023-02-24T10:15:03.098Z,21.90
2023-02-24T10:20:10.287Z,22.00
2023-02-24T10:25:21.308Z,22.00
2023-02-24T10:30:24.798Z,22.10
2023-02-24T10:35:31.968Z,22.10
2023-02-24T10:40:39.199Z,22.20
2023-02-24T10:45:46.384Z,22.30
2023-02-24T10:50:56.254Z,22.30
2023-02-24T10:56:00.705Z,22.40
2023-02-24T11:01:07.887Z,22.40
2023-02-24T11:06:15.045Z,22.50
2023-02-24T11:11:22.662Z,22.50
2023-02-24T11:16:29.423Z,22.60
2023-02-24T11:21:36.608Z,22.60
2023-02-24T11:26:43.811Z,22.70
2023-02-24T11:31:51.119Z,22.70
2023-02-24T11:36:58.211Z,22.70
2023-02-24T11:42:05.478Z,22.80
2023-02-24T11:47:12.625Z,22.80
2023-02-24T11:52:19.782Z,22.90
2023-02-24T11:57:27.145Z,22.90
2023-02-24T12:02:34.222Z,22.90
2023-02-24T12:07:41.388Z,23.00
2023-02-24T12:12:48.570Z,23.10
2023-02-24T12:17:55.769Z,23.10
2023-02-24T12:23:03.051Z,23.10
2023-02-24T12:28:10.352Z,23.20
2023-02-24T12:33:17.532Z,23.20
2023-02-24T12:38:24.751Z,23.20
2023-02-24T12:43:32.004Z,23.30
2023-02-24T12:48:39.213Z,23.30
2023-02-24T12:53:46.381Z,23.40
2023-02-24T12:58:53.602Z,23.40
2023-02-24T13:04:00.711Z,23.40
2023-02-24T13:09:07.866Z,23.50
2023-02-24T13:14:15.109Z,23.50
2023-02-24T13:19:22.388Z,23.60
2023-02-24T13:24:29.649Z,23.60
2023-02-24T13:29:36.875Z,23.60
2023-02-24T13:34:43.996Z,23.70
2023-02-24T13:39:51.285Z,23.70
2023-02-24T13:44:58.498Z,23.80
2023-02-24T13:50:05.667Z,23.80
2023-02-24T13:55:12.887Z,23.80
2023-02-24T14:00:20.134Z,23.80
2023-02-24T14:05:27.348Z,23.80
2023-02-24T14:10:34.532Z,23.80
2023-02-24T14:15:41.747Z,23.80
2023-02-24T14:20:48.869Z,23.90
2023-02-24T14:25:56.098Z,23.90
2023-02-24T14:31:03.380Z,23.90
2023-02-24T14:36:10.535Z,23.90
2023-02-24T14:41:17.740Z,23.90
2023-02-24T14:46:25.455Z,23.90
2023-02-24T14:51:32.249Z,23.90
2023-02-24T14:56:39.475Z,24.00
2023-02-24T15:01:46.805Z,24.00
2023-02-24T15:06:53.983Z,24.00
2023-02-24T15:12:01.131Z,24.00
2023-02-24T15:17:08.393Z,24.00
2023-02-24T15:22:15.594Z,24.00
2023-02-24T15:27:22.770Z,24.00
2023-02-24T15:32:30.178Z,24.00
2023-02-24T15:37:37.156Z,24.00
2023-02-24T15:42:45.748Z,24.10
2023-02-24T15:47:51.532Z,24.10
2023-02-24T15:52:58.911Z,24.10
2023-02-24T15:58:06.186Z,24.10
2023-02-24T16:03:13.555Z,24.10
2023-02-24T16:08:20.863Z,24.10
2023-02-24T16:13:28.352Z,24.20
2023-02-24T16:18:35.650Z,24.10
2023-02-24T16:23:42.814Z,24.20
2023-02-24T16:28:50.095Z,24.20
2023-02-24T16:33:57.536Z,24.10
2023-02-24T16:39:04.492Z,24.10
2023-02-24T16:44:12.087Z,24.20
2023-02-24T16:49:19.400Z,24.20
2023-02-24T16:54:26.521Z,24.30
2023-02-24T16:59:33.726Z,24.20
2023-02-24T17:04:41.822Z,24.30
2023-02-24T17:09:48.900Z,24.30
2023-02-24T17:14:56.952Z,24.30
2023-02-24T17:20:04.497Z,24.30
2023-02-24T17:25:11.907Z,24.30
2023-02-24T17:30:19.136Z,24.40
2023-02-24T17:35:26.620Z,24.40
2023-02-24T17:40:34.205Z,24.40
2023-02-24T17:45:41.823Z,24.40
2023-02-24T17:50:49.681Z,24.50
2023-02-24T17:56:02.524Z,24.50
2023-02-24T18:01:04.874Z,24.50
2023-02-24T18:06:12.265Z,24.50
2023-02-24T18:11:19.476Z,24.50
2023-02-24T18:16:27.033Z,24.50
2023-02-24T18:21:34.444Z,24.60
2023-02-24T18:26:41.921Z,24.60
2023-02-24T18:31:49.692Z,24.60
2023-02-24T18:36:56.911Z,24.60
2023-02-24T18:42:04.365Z,24.60
2023-02-24T18:47:11.920Z,24.70
2023-02-24T18:52:19.504Z,24.70
2023-02-24T18:57:27.103Z,24.70
2023-02-24T19:02:34.862Z,24.70
2023-02-24T19:07:42.261Z,24.70
2023-02-24T19:12:49.837Z,24.70
2023-02-24T19:17:57.488Z,24.70
2023-02-24T19:23:04.847Z,24.70
2023-02-24T19:28:12.280Z,24.80
2023-02-24T19:33:19.830Z,24.80
2023-02-24T19:38:27.522Z,24.80
2023-02-24T19:43:35.225Z,24.80
2023-02-24T19:48:42.565Z,24.80
2023-02-24T19:53:50.163Z,24.80
2023-02-24T19:58:57.824Z,24.90
2023-02-24T20:04:05.290Z,24.80
2023-02-24T20:09:12.903Z,24.90
2023-02-24T20:14:20.197Z,24.90
2023-02-24T20:19:27.695Z,24.90
2023-02-24T20:24:38.317Z,24.90
2023-02-24T20:29:45.998Z,24.90
2023-02-24T20:34:53.710Z,24.90
2023-02-24T20:40:01.362Z,25.00
2023-02-24T20:45:08.725Z,25.00
2023-02-24T20:50:16.249Z,25.00
2023-02-24T20:55:23.786Z,25.00
2023-02-24T21:00:31.484Z,25.00
2023-02-24T21:05:39.041Z,25.00
2023-02-24T21:10:46.533Z,25.10
2023-02-24T21:15:54.274Z,25.10
2023-02-24T21:21:01.554Z,25.10
2023-02-24T21:26:08.880Z,25.10
2023-02-24T21:31:16.242Z,25.10
2023-02-24T21:36:24.181Z,25.10
2023-02-24T21:41:30.994Z,25.10
2023-02-24T21:46:38.245Z,25.10
2023-02-24T21:51:45.344Z,25.10
2023-02-24T21:56:52.552Z,25.10
2023-02-24T22:01:59.816Z,25.20
2023-02-24T22:07:06.909Z,25.20
2023-02-24T22:12:14.171Z,25.20
2023-02-24T22:17:21.401Z,25.20
2023-02-24T22:22:28.674Z,25.20
2023-02-24T22:27:36.044Z,25.20
2023-02-24T22:32:43.263Z,25.20
2023-02-24T22:37:50.386Z,25.20
2023-02-24T22:42:57.594Z,25.20
2023-02-24T22:48:04.825Z,25.20
2023-02-24T22:53:11.936Z,25.20
2023-02-24T22:58:19.153Z,25.20
2023-02-24T23:03:26.417Z,25.20
2023-02-24T23:08:33.493Z,25.20
2023-02-24T23:13:40.672Z,25.20
2023-02-24T23:18:47.857Z,25.30
2023-02-24T23:23:55.044Z,25.30
2023-02-24T23:29:02.282Z,25.30
2023-02-24T23:34:09.438Z,25.40
2023-02-24T23:39:16.617Z,25.40
2023-02-24T23:44:23.862Z,25.40
2023-02-24T23:49:46.133Z,25.50
2023-02-24T23:54:38.283Z,25.50
2023-02-24T23:59:45.484Z,25.50
